Airport Name : Khanty Mansiysk

Other Name : Khanty Mansiysk

ICAO : USHH

IATA : HMA

FAA :

Latitude : 61.028479

Longitude : 69.086067

Country : Russia

Local Date and Time : 25 Jun 2024 09:55

 

TAF (Terminal Aerodrome Forecast)

TAF USHH 250139Z 2503/2603 14003G12MPS 9999 SCT020 TEMPO 2503/2515 VRB23MPS 2100 -TSRAGR SQ SCT003 BKN016CB TEMPO 2515/2603 5000 BR SCT005 BKN016

 

METAR (METeorological Aerodrome Report)

USHH 250430Z 14004MPS CAVOK 24/16 Q0998 R06/010060 NOSIG

USHH 250400Z 14004MPS CAVOK 24/16 Q0998 R06/010060 NOSIG

USHH 250330Z 14003MPS CAVOK 23/17 Q0998 R06/010060 NOSIG

USHH 250300Z 14004MPS CAVOK 23/17 Q0998 R24/010060 NOSIG

USHH 250230Z 15003MPS CAVOK 23/18 Q0998 R06/010060 NOSIG

USHH 250200Z 13004MPS CAVOK 22/18 Q0998 R06/010060 NOSIG

USHH 250130Z 13003MPS CAVOK 22/18 Q0998 R06/010060 NOSIG

USHH 250100Z 14003MPS CAVOK 21/19 Q0998 R06/010060 TEMPO 2000 BR SCT005